• Join FlightAware (Why Join?)
  • Login
  • US Flag 
01:43AM EDT


 

Airport Tracker/Info


-or-


 

Live Flight TrackerFlight Track Log ✈ JEX1789 ✈ 30-Aug-2013 ✈ RJTT / HND - RJFO / OIT

Flight Track Log - Related Links

Times and Time Zones

All times are in EDT time to prevent confusion due to time zone crossing. See the JEX1789 flight status page for this flight to view local times or setup timezone preferences in your user account.

Time Position Orientation Groundspeed Altitude Reporting Facility
EDT Latitude Longitude Course Direction KTS MPH feet Rate Location/Type
01:51AM 35.4745 139.4270 255° West  Level Estimated
01:52AM 35.4483 139.3096 255° West  Level Estimated
01:53AM 35.4220 139.1923 255° West  Level Estimated
01:54AM 35.3956 139.0750 255° West  Level Estimated
01:55AM 35.3691 138.9579 255° West  Level Estimated
01:56AM 35.3425 138.8408 254° West  Level Estimated
01:57AM 35.3158 138.7238 254° West  Level Estimated
01:58AM 35.2890 138.6068 254° West  Level Estimated
01:59AM 35.2620 138.4900 254° West  Level Estimated
02:00AM 35.2350 138.3732 254° West  Level Estimated
02:01AM 35.2078 138.2565 254° West  Level Estimated
02:02AM 35.1805 138.1398 254° West  Level Estimated
02:03AM 35.1527 138.0216 254° West  Level Estimated
02:04AM 35.1248 137.9034 254° West  Level Estimated
02:05AM 35.0968 137.7854 254° West  Level Estimated
02:06AM 35.0686 137.6673 254° West  Level Estimated
02:07AM 35.0404 137.5494 254° West  Level Estimated
02:08AM 35.0120 137.4316 254° West  Level Estimated
02:09AM 34.9835 137.3139 254° West  Level Estimated
02:10AM 34.9549 137.1962 254° West  Level Estimated
02:11AM 34.9262 137.0786 253° West  Level Estimated
02:12AM 34.8974 136.9611 253° West  Level Estimated
02:13AM 34.8685 136.8437 253° West  Level Estimated
02:14AM 34.8394 136.7263 253° West  Level Estimated
02:15AM 34.8103 136.6091 253° West  Level Estimated
02:16AM 34.7806 136.4902 253° West  Level Estimated
02:17AM 34.7507 136.3714 253° West  Level Estimated
02:18AM 34.7208 136.2527 253° West  Level Estimated
02:19AM 34.6908 136.1340 253° West  Level Estimated
02:20AM 34.6606 136.0155 253° West  Level Estimated
02:21AM 34.6303 135.8970 253° West  Level Estimated
02:22AM 34.5999 135.7786 253° West  Level Estimated
02:23AM 34.5694 135.6603 253° West  Level Estimated
02:24AM 34.5388 135.5421 253° West  Level Estimated
02:25AM 34.5081 135.4240 253° West  Level Estimated
02:26AM 34.4772 135.3060 252° West  Level Estimated
02:27AM 34.4463 135.1880 252° West  Level Estimated
02:28AM 34.4152 135.0702 252° West  Level Estimated
02:29AM 34.3840 134.9524 252° West  Level Estimated
02:30AM 34.3527 134.8347 252° West  Level Estimated
02:31AM 34.3213 134.7172 252° West  Level Estimated
02:32AM 34.2888 134.5961 252° West  Level Estimated
02:33AM 34.2562 134.4751 252° West  Level Estimated
02:34AM 34.2235 134.3543 252° West  Level Estimated
02:35AM 34.1906 134.2335 252° West  Level Estimated
02:36AM 34.1577 134.1128 252° West  Level Estimated
02:37AM 34.1246 133.9922 252° West  Level Estimated
02:38AM 34.0914 133.8717 252° West  Level Estimated
02:39AM 34.0581 133.7513 252° West  Level Estimated
02:40AM 34.0247 133.6310 251° West  Level Estimated
02:41AM 33.9911 133.5108 251° West  Level Estimated
02:42AM 33.9575 133.3907 251° West  Level Estimated
02:43AM 33.9237 133.2706 251° West  Level Estimated
02:44AM 33.8898 133.1507 251° West  Level Estimated
02:45AM 33.8558 133.0309 251° West  Level Estimated
02:46AM 33.8216 132.9111 251° West  Level Estimated
02:47AM 33.7874 132.7915 251° West  Level Estimated
02:48AM 33.7530 132.6720 251° West  Level Estimated
02:49AM 33.7186 132.5525 251° West  Level Estimated
02:50AM 33.6840 132.4332 251° West  Level Estimated
02:51AM 33.6493 132.3139 251° West  Level Estimated
02:52AM 33.6155 132.1982 251° West  Level Estimated
02:53AM 33.5816 132.0827 251° West  Level Estimated
02:54AM 33.5476 131.9672 251° West  Level Estimated
02:55AM 33.5135 131.8518 251° West  Level Estimated
02:56AM 33.4794 131.7372 250° West  Level Estimated
02:57AM 33.4794 131.7372 23° Northeast  Level Estimated
02:58AM 33.4794 131.7372 23° Northeast  Level Estimated
02:59AM 33.4794 131.7372 23° Northeast  Level Estimated
03:00AM 33.4794 131.7372 23° Northeast  Level Estimated
03:01AM 33.4794 131.7372 23° Northeast  Level Estimated
03:02AM 33.4794 131.7372 23° Northeast  Level Estimated
03:03AM 33.4794 131.7372 23° Northeast  Level Estimated